MOL Benefactor — VRPJ6 — position and weather

sailwx.info

Track history (hours):
 
Tides and Currents Weather Stations Pressure Air Temp Water Temp Dewpoint Dewpoint Depression Visibility Wind Speed Wind Dir Waves Ship Positions

MOL Benefactor

Last reported at 2017-Sep-21 16:06 UTC. Time now 2017-Sep-25 00:40 UTC.
Position N 31°42' W 080°31'.

Length 337 m; draft 11.9 m.

Type: Ship (hazmat cat A). MMSI: 477307900.

Date/timePositionNaut miles runAvg speedWind from/ knotsBaromVisibWave heightAir tempDewpointWater temp
2017-Sep-21 16:06N 31°42' W 080°31'211.0
2017-Sep-21 15:58N 31°43' W 080°31'810.9
2017-Sep-21 15:13N 31°51' W 080°28'210.8
2017-Sep-21 15:00N 31°53' W 080°30'611.5
2017-Sep-21 14:30N 31°55' W 080°36'611.1
2017-Sep-21 14:00N 31°57' W 080°42'613.1
2017-Sep-21 13:30N 32°01' W 080°48'611.4
2017-Sep-21 13:00N 32°02' W 080°55'5 9.5
2017-Sep-21 12:30N 32°05' W 080°59'3 7.0
2017-Sep-21 12:00N 32°05' W 081°03'2 4.7
2017-Sep-21 11:30N 32°05' W 081°06'2 4.3
2017-Sep-21 11:00N 32°07' W 081°08'1 1.9
2017-Sep-21 10:30N 32°08' W 081°08'0 0.8
2017-Sep-21 09:54N 32°08' W 081°09'0 0.0
2017-Sep-21 09:27N 32°08' W 081°09'0 0.0
2017-Sep-21 08:57N 32°08' W 081°09'0 0.0
2017-Sep-21 08:21N 32°08' W 081°09'0 0.0
2017-Sep-21 07:57N 32°08' W 081°09'0 0.0
2017-Sep-21 07:27N 32°08' W 081°09'0 0.0
2017-Sep-21 06:39N 32°08' W 081°09'0 0.0
2017-Sep-21 06:27N 32°08' W 081°09'0 0.0
2017-Sep-21 05:51N 32°08' W 081°09'0 0.0
2017-Sep-21 05:21N 32°08' W 081°09'0 0.0
2017-Sep-21 04:57N 32°08' W 081°09'0 0.0
2017-Sep-21 04:27N 32°08' W 081°09'0 0.0
2017-Sep-21 03:57N 32°08' W 081°09'0 0.0
2017-Sep-21 03:27N 32°08' W 081°09'0 0.0
2017-Sep-21 02:57N 32°08' W 081°09'0 0.0
2017-Sep-21 02:27N 32°08' W 081°09'0 0.0
2017-Sep-21 01:51N 32°08' W 081°09'0 0.0
2017-Sep-21 01:27N 32°08' W 081°09'0 0.0
2017-Sep-21 00:51N 32°08' W 081°09'0 0.0
2017-Sep-21 00:27N 32°08' W 081°09'0 0.0
2017-Sep-20 23:51N 32°08' W 081°09'0 0.0
2017-Sep-20 23:09N 32°08' W 081°09'0 0.0
2017-Sep-20 22:57N 32°08' W 081°09'0 0.0
2017-Sep-20 22:27N 32°08' W 081°09'0 0.0
2017-Sep-20 21:57N 32°08' W 081°09'0 0.0
2017-Sep-20 21:27N 32°08' W 081°09'0 0.0
2017-Sep-20 20:51N 32°08' W 081°09'0 0.0
2017-Sep-20 20:03N 32°08' W 081°09'0 0.0
2017-Sep-20 19:57N 32°08' W 081°09'0 0.0
2017-Sep-20 19:27N 32°08' W 081°09'0 0.0
2017-Sep-20 18:57N 32°08' W 081°09'0 0.0
2017-Sep-20 18:09N 32°08' W 081°09'0 0.0
2017-Sep-20 17:57N 32°08' W 081°09'0 0.0
2017-Sep-20 17:27N 32°08' W 081°09'0 0.0
2017-Sep-20 16:57N 32°08' W 081°09'0 0.0
2017-Sep-20 16:27N 32°08' W 081°09'0 0.0
2017-Sep-20 15:57N 32°08' W 081°09'0 0.0
2017-Sep-20 15:27N 32°08' W 081°09'1 1.2
2017-Sep-20 15:00N 32°08' W 081°08'4 3.8
2017-Sep-20 14:00N 32°05' W 081°05'3 6.3
2017-Sep-20 13:28N 32°05' W 081°01'5 9.7
2017-Sep-20 13:00N 32°03' W 080°57'510.7
2017-Sep-20 12:30N 32°02' W 080°51'713.5
2017-Sep-20 12:00N 31°58' W 080°44'510.1
2017-Sep-20 11:29N 31°56' W 080°38'5 9.7
2017-Sep-20 11:00N 31°56' W 080°33'611.0
2017-Sep-20 10:30N 31°56' W 080°26'511.0
2017-Sep-20 10:00N 31°56' W 080°20'611.2
2017-Sep-20 09:29N 31°55' W 080°13'510.7
2017-Sep-20 09:00N 31°54' W 080°07'3 3.5
2017-Sep-20 08:14N 31°54' W 080°04'0 0.8
2017-Sep-20 07:59N 31°54' W 080°04'0 0.6
2017-Sep-20 07:16N 31°54' W 080°04'0 0.3
2017-Sep-20 07:00N 31°53' W 080°04'0 0.8
2017-Sep-20 06:30N 31°53' W 080°04'0 1.0
2017-Sep-20 06:00N 31°53' W 080°03'0 0.8
2017-Sep-20 05:30N 31°53' W 080°03'0 0.9
2017-Sep-20 05:00N 31°53' W 080°02'0 0.6
2017-Sep-20 04:30N 31°53' W 080°02'0 0.9
2017-Sep-20 04:00N 31°53' W 080°01'0 0.7
2017-Sep-20 03:30N 31°53' W 080°02'1 1.1
2017-Sep-20 02:58N 31°53' W 080°02'0 0.5
2017-Sep-20 02:04N 31°54' W 080°03'0 1.0
2017-Sep-20 02:00N 31°54' W 080°03'0 0.4
2017-Sep-20 00:59N 31°54' W 080°03'1 1.3
2017-Sep-20 00:30N 31°54' W 080°04'0 0.7
2017-Sep-20 00:00N 31°54' W 080°04'0 0.9
2017-Sep-19 23:28N 31°54' W 080°05'0 0.8
2017-Sep-19 22:55N 31°53' W 080°04'0 0.4
2017-Sep-19 22:30N 31°53' W 080°04'0 0.3
2017-Sep-19 21:57N 31°53' W 080°04'1 2.2
2017-Sep-19 21:24N 31°54' W 080°05'1 3.0
2017-Sep-19 21:00N 31°55' W 080°06'1 1.8
2017-Sep-19 20:30N 31°55' W 080°07'0 0.8
2017-Sep-19 19:59N 31°55' W 080°07'0 0.3
2017-Sep-19 19:14N 31°55' W 080°07'3 6.3
2017-Sep-19 18:49N 31°54' W 080°04'10 4.4
2017-Sep-19 16:35N 31°51' W 079°53'0 1.0
2017-Sep-19 16:22N 31°52' W 079°53'0 1.2
2017-Sep-19 15:58N 31°52' W 079°53'1 1.3
2017-Sep-19 15:30N 31°52' W 079°54'1 1.1
2017-Sep-19 15:00N 31°52' W 079°55'1 1.4
2017-Sep-19 14:29N 31°52' W 079°56'2 1.9
2017-Sep-19 13:39N 31°53' W 079°57'1 1.8
2017-Sep-19 13:13N 31°53' W 079°58'1 1.6
2017-Sep-19 12:47N 31°52' W 079°59'0 1.2
2017-Sep-19 12:27N 31°52' W 079°59'1 1.6
2017-Sep-19 12:00N 31°52' W 080°00'1 1.3
2017-Sep-19 11:25N 31°52' W 080°01'0 0.9
2017-Sep-19 10:59N 31°53' W 080°01'0 0.9
2017-Sep-19 10:26N 31°53' W 080°02'1 1.3
2017-Sep-19 09:59N 31°52' W 080°02'0 0.6
2017-Sep-19 09:12N 31°52' W 080°02'0 1.2
2017-Sep-19 08:55N 31°52' W 080°02'0 0.5
2017-Sep-19 08:14N 31°52' W 080°02'0 0.5
2017-Sep-19 08:00N 31°52' W 080°02'0 0.7
2017-Sep-19 07:29N 31°52' W 080°02'0 0.6
2017-Sep-19 07:00N 31°52' W 080°02'0 0.6
2017-Sep-19 06:29N 31°52' W 080°02'0 0.3
2017-Sep-19 05:57N 31°51' W 080°02'0 0.2
2017-Sep-19 05:30N 31°51' W 080°02'0 0.3
2017-Sep-19 05:00N 31°51' W 080°02'1 1.1
2017-Sep-19 04:30N 31°52' W 080°03'1 1.4
2017-Sep-19 04:00N 31°52' W 080°03'1 1.1
2017-Sep-19 03:30N 31°52' W 080°04'1 1.1
2017-Sep-19 03:00N 31°53' W 080°04'1 1.1
2017-Sep-19 02:30N 31°53' W 080°05'0 0.3
2017-Sep-19 02:00N 31°53' W 080°05'0 0.8
2017-Sep-19 01:27N 31°53' W 080°06'1 0.6
2017-Sep-18 23:29N 31°54' W 080°07'0 0.2
2017-Sep-18 21:50N 31°54' W 080°06'0 1.2
2017-Sep-18 21:30N 31°54' W 080°06'0 0.6
2017-Sep-18 20:59N 31°54' W 080°06'0 0.8
2017-Sep-18 20:29N 31°53' W 080°05'1 1.1
2017-Sep-18 19:57N 31°53' W 080°06'3810.5
2017-Sep-18 16:19N 32°03' W 079°22'1 2.6
2017-Sep-18 15:50N 32°03' W 079°21'286 8.1
2017-Sep-17 04:16N 35°12' W 075°03'2 7.4
2017-Sep-17 04:00N 35°14' W 075°03'8 8.5
2017-Sep-17 03:04N 35°22' W 075°02'210.1
2017-Sep-17 02:50N 35°24' W 075°03'410.0
2017-Sep-17 02:25N 35°28' W 075°04'410.1
2017-Sep-17 02:00N 35°32' W 075°05'610.4
2017-Sep-17 01:28N 35°38' W 075°07'510.5
2017-Sep-17 01:00N 35°42' W 075°08'710.4
2017-Sep-17 00:22N 35°49' W 075°09'410.6
2017-Sep-17 00:00N 35°52' W 075°11'510.6
2017-Sep-16 23:30N 35°58' W 075°13'5810.2
2017-Sep-16 17:47N 36°49' W 075°47'510.7
2017-Sep-16 17:22N 36°51' W 075°51'411.3
2017-Sep-16 17:00N 36°54' W 075°55'611.8
2017-Sep-16 16:30N 36°57' W 076°02'916.8
2017-Sep-16 15:58N 36°60' W 076°12'612.1
2017-Sep-16 15:26N 36°58' W 076°20'3 7.2
2017-Sep-16 15:00N 36°55' W 076°20'1 1.3
2017-Sep-16 14:28N 36°55' W 076°20'0 0.0
2017-Sep-16 13:58N 36°55' W 076°20'0 0.0
2017-Sep-16 13:28N 36°55' W 076°20'0 0.0
2017-Sep-16 12:58N 36°55' W 076°20'0 0.0
2017-Sep-16 12:28N 36°55' W 076°20'0 0.0
2017-Sep-16 11:58N 36°55' W 076°20'0 0.0
2017-Sep-16 11:28N 36°55' W 076°20'0 0.0
2017-Sep-16 10:58N 36°55' W 076°20'0 0.0
2017-Sep-16 10:28N 36°55' W 076°20'0 0.0
2017-Sep-16 09:58N 36°55' W 076°20'0 0.0
2017-Sep-16 09:28N 36°55' W 076°20'0 0.0
2017-Sep-16 08:58N 36°55' W 076°20'0 0.0
2017-Sep-16 08:28N 36°55' W 076°20'0 0.0
2017-Sep-16 07:58N 36°55' W 076°20'0 0.0
2017-Sep-16 07:28N 36°55' W 076°20'0 0.0
2017-Sep-16 06:58N 36°55' W 076°20'0 0.0
2017-Sep-16 06:28N 36°55' W 076°20'0 0.0
2017-Sep-16 05:58N 36°55' W 076°20'0 0.0
2017-Sep-16 05:25N 36°55' W 076°20'0 0.0
2017-Sep-16 04:58N 36°55' W 076°20'0 0.0
2017-Sep-16 04:28N 36°55' W 076°20'0 0.0
2017-Sep-16 03:58N 36°55' W 076°20'0 0.0
2017-Sep-16 03:28N 36°55' W 076°20'0 0.0
2017-Sep-16 02:58N 36°55' W 076°20'0 0.0
2017-Sep-16 02:28N 36°55' W 076°20'0 0.0
2017-Sep-16 01:58N 36°55' W 076°20'0 0.0
2017-Sep-16 01:28N 36°55' W 076°20'0 0.0
2017-Sep-16 00:58N 36°55' W 076°20'0 0.0
2017-Sep-16 00:28N 36°55' W 076°20'0 0.0
2017-Sep-15 23:58N 36°55' W 076°20'0 0.0
2017-Sep-15 23:28N 36°55' W 076°20'0 0.0
2017-Sep-15 22:58N 36°55' W 076°20'0 0.0
2017-Sep-15 22:28N 36°55' W 076°20'0 0.0
2017-Sep-15 21:58N 36°55' W 076°20'0 0.0
2017-Sep-15 21:29N 36°55' W 076°20'1 1.5
2017-Sep-15 21:00N 36°55' W 076°20'3 5.1
2017-Sep-15 20:30N 36°58' W 076°20'510.6
2017-Sep-15 20:00N 37°00' W 076°15'815.9
2017-Sep-15 19:30N 36°58' W 076°05'612.9
2017-Sep-15 19:00N 36°57' W 075°57'5 9.8
2017-Sep-15 18:30N 36°53' W 075°53'611.3
2017-Sep-15 18:00N 36°50' W 075°47'612.1
2017-Sep-15 17:30N 36°49' W 075°39'128 7.4
2017-Sep-15 00:17N 38°33' W 074°05'310.4
2017-Sep-15 00:00N 38°36' W 074°04'510.5
2017-Sep-14 23:30N 38°41' W 074°03'610.5
2017-Sep-14 22:56N 38°47' W 074°02'410.5
2017-Sep-14 22:30N 38°52' W 074°01'510.3
2017-Sep-14 21:58N 38°57' W 074°00'510.2
2017-Sep-14 21:29N 39°02' W 073°59'510.2
2017-Sep-14 20:59N 39°07' W 073°59'510.1
2017-Sep-14 20:30N 39°12' W 073°58'510.1
2017-Sep-14 20:00N 39°17' W 073°57'1110.0
2017-Sep-14 18:57N 39°27' W 073°55'410.0
2017-Sep-14 18:30N 39°31' W 073°54'5 9.9
2017-Sep-14 18:00N 39°36' W 073°53'5 9.8
2017-Sep-14 17:30N 39°41' W 073°52'510.0
2017-Sep-14 17:00N 39°46' W 073°51'510.0
2017-Sep-14 16:30N 39°51' W 073°51'510.1
2017-Sep-14 16:00N 39°56' W 073°51'610.2
2017-Sep-14 15:27N 40°02' W 073°50'510.1
2017-Sep-14 15:00N 40°06' W 073°50'510.1
2017-Sep-14 14:30N 40°11' W 073°50'510.1
2017-Sep-14 14:01N 40°16' W 073°49'510.0
2017-Sep-14 13:30N 40°22' W 073°49'5 9.8
2017-Sep-14 13:00N 40°26' W 073°49'713.9
2017-Sep-14 12:30N 40°30' W 073°57'815.8
2017-Sep-14 12:00N 40°37' W 074°03'4 3.8
2017-Sep-14 10:58N 40°40' W 074°05'0 0.0
2017-Sep-14 10:28N 40°40' W 074°05'0 0.0
2017-Sep-14 09:58N 40°40' W 074°05'0 0.0
2017-Sep-14 09:28N 40°40' W 074°05'0 0.0
2017-Sep-14 08:58N 40°40' W 074°05'0 0.0
2017-Sep-14 08:28N 40°40' W 074°05'0 0.0
2017-Sep-14 07:58N 40°40' W 074°05'0 0.0
2017-Sep-14 07:28N 40°40' W 074°05'0 0.0
2017-Sep-14 06:58N 40°40' W 074°05'0 0.0
2017-Sep-14 06:28N 40°40' W 074°05'0 0.0
2017-Sep-14 05:58N 40°40' W 074°05'0 0.0
2017-Sep-14 05:28N 40°40' W 074°05'0 0.0
2017-Sep-14 04:58N 40°40' W 074°05'0 0.0
2017-Sep-14 04:28N 40°40' W 074°05'0 0.0
2017-Sep-14 03:58N 40°40' W 074°05'0 0.0
2017-Sep-14 03:28N 40°40' W 074°05'0 0.0
2017-Sep-14 02:58N 40°40' W 074°05'0 0.0
2017-Sep-14 02:28N 40°40' W 074°05'0 0.0
2017-Sep-14 01:58N 40°40' W 074°05'0 0.0
2017-Sep-14 01:28N 40°40' W 074°05'0 0.0
2017-Sep-14 00:58N 40°40' W 074°05'0 0.0
2017-Sep-14 00:28N 40°40' W 074°05'0 0.0
2017-Sep-13 23:58N 40°40' W 074°05'0 0.0
2017-Sep-13 23:28N 40°40' W 074°05'0 0.0
2017-Sep-13 22:58N 40°40' W 074°05'0 0.0
2017-Sep-13 22:28N 40°40' W 074°05'0 0.0
2017-Sep-13 21:58N 40°40' W 074°05'0 0.0
2017-Sep-13 21:28N 40°40' W 074°05'0 0.0
2017-Sep-13 20:58N 40°40' W 074°05'0 0.0
2017-Sep-13 20:28N 40°40' W 074°05'0 0.0
2017-Sep-13 19:58N 40°40' W 074°05'0 0.0
2017-Sep-13 19:28N 40°40' W 074°05'0 0.0
2017-Sep-13 18:58N 40°40' W 074°05'0 0.0
2017-Sep-13 18:28N 40°40' W 074°05'0 0.0
2017-Sep-13 17:58N 40°40' W 074°05'0 0.0
2017-Sep-13 17:28N 40°40' W 074°05'0 0.0
2017-Sep-13 16:58N 40°40' W 074°05'0 0.0
2017-Sep-13 16:28N 40°40' W 074°05'0 0.0
2017-Sep-13 15:58N 40°40' W 074°05'0 0.0
2017-Sep-13 15:28N 40°40' W 074°05'0 0.0
2017-Sep-13 14:58N 40°40' W 074°05'0 0.0
2017-Sep-13 14:28N 40°40' W 074°05'0 0.0
2017-Sep-13 13:58N 40°40' W 074°05'0 0.0
2017-Sep-13 13:28N 40°40' W 074°05'0 0.0
2017-Sep-13 12:58N 40°40' W 074°05'0 0.0
2017-Sep-13 12:28N 40°40' W 074°05'0 0.0
2017-Sep-13 11:58N 40°40' W 074°05'0 0.0
2017-Sep-13 11:28N 40°40' W 074°05'0 0.0
2017-Sep-13 10:58N 40°40' W 074°05'0 0.0
2017-Sep-13 10:28N 40°40' W 074°05'0 0.0
2017-Sep-13 09:58N 40°40' W 074°05'0 0.0
2017-Sep-13 09:28N 40°40' W 074°05'0 0.0
2017-Sep-13 08:58N 40°40' W 074°05'0 0.0
2017-Sep-13 08:28N 40°40' W 074°05'0 0.0
2017-Sep-13 07:58N 40°40' W 074°05'0 0.0
2017-Sep-13 07:28N 40°40' W 074°05'0 0.0
2017-Sep-13 06:58N 40°40' W 074°05'0 0.0
2017-Sep-13 06:28N 40°40' W 074°05'0 0.0
2017-Sep-13 05:58N 40°40' W 074°05'0 0.0
2017-Sep-13 05:28N 40°40' W 074°05'0 0.0
2017-Sep-13 04:58N 40°40' W 074°05'0 0.0
2017-Sep-13 04:28N 40°40' W 074°05'0 0.0
2017-Sep-13 03:58N 40°40' W 074°05'0 0.0
2017-Sep-13 03:28N 40°40' W 074°05'0 0.0
2017-Sep-13 02:58N 40°40' W 074°05'0 0.0
2017-Sep-13 02:28N 40°40' W 074°05'0 0.0
2017-Sep-13 01:58N 40°40' W 074°05'0 0.0
2017-Sep-13 01:28N 40°40' W 074°05'0 0.0
2017-Sep-13 00:58N 40°40' W 074°05'0 0.0
2017-Sep-13 00:28N 40°40' W 074°05'0 0.0
2017-Sep-12 23:58N 40°40' W 074°05'0 0.0
2017-Sep-12 23:28N 40°40' W 074°05'0 0.0
2017-Sep-12 22:58N 40°40' W 074°05'0 0.0
2017-Sep-12 22:28N 40°40' W 074°05'0 0.0
2017-Sep-12 21:58N 40°40' W 074°05'0 0.0
2017-Sep-12 21:28N 40°40' W 074°05'0 0.0
2017-Sep-12 20:58N 40°40' W 074°05'0 0.0
2017-Sep-12 20:28N 40°40' W 074°05'0 0.9
2017-Sep-12 20:00N 40°40' W 074°04'4 7.4
2017-Sep-12 19:30N 40°36' W 074°03'510.3
2017-Sep-12 19:00N 40°32' W 074°01'611.1
2017-Sep-12 18:30N 40°29' W 073°54'5 9.6
2017-Sep-12 18:00N 40°27' W 073°48'3 6.3
2017-Sep-12 17:29N 40°28' W 073°44'0 0.4
2017-Sep-12 17:00N 40°27' W 073°44'3 6.1
2017-Sep-12 16:30N 40°28' W 073°40'1015.1
2017-Sep-12 15:52N 40°28' W 073°27'616.0
2017-Sep-12 15:30N 40°29' W 073°20'815.8
2017-Sep-12 14:59N 40°29' W 073°09'815.8
2017-Sep-12 14:31N 40°30' W 072°59'816.1
2017-Sep-12 14:01N 40°30' W 072°48'713.8
2017-Sep-12 13:30N 40°30' W 072°39'1 1.0
2017-Sep-12 13:00N 40°30' W 072°39'3 5.9
2017-Sep-12 12:31N 40°30' W 072°35'2517.8
2017-Sep-12 11:06N 40°31' W 072°02'218.3
2017-Sep-12 11:01N 40°31' W 071°60'918.3
2017-Sep-12 10:31N 40°32' W 071°48'  
Track history (hours):
 
Tides and Currents Weather Stations Pressure Air Temp Water Temp Dewpoint Dewpoint Depression Visibility Wind Speed Wind Dir Waves Ship Positions

MOL Benefactor

Last reported at 2017-Sep-21 16:06 UTC. Time now 2017-Sep-25 00:40 UTC.
Position N 31°42' W 080°31'.

Length 337 m; draft 11.9 m.

Type: Ship (hazmat cat A). MMSI: 477307900.

Date/timePositionNaut miles runAvg speedWind from/ knotsBaromVisibWave heightAir tempDewpointWater temp
2017-Sep-21 16:06N 31°42' W 080°31'211.0
2017-Sep-21 15:58N 31°43' W 080°31'810.9
2017-Sep-21 15:13N 31°51' W 080°28'210.8
2017-Sep-21 15:00N 31°53' W 080°30'611.5
2017-Sep-21 14:30N 31°55' W 080°36'611.1
2017-Sep-21 14:00N 31°57' W 080°42'613.1
2017-Sep-21 13:30N 32°01' W 080°48'611.4
2017-Sep-21 13:00N 32°02' W 080°55'5 9.5
2017-Sep-21 12:30N 32°05' W 080°59'3 7.0
2017-Sep-21 12:00N 32°05' W 081°03'2 4.7
2017-Sep-21 11:30N 32°05' W 081°06'2 4.3
2017-Sep-21 11:00N 32°07' W 081°08'1 1.9
2017-Sep-21 10:30N 32°08' W 081°08'0 0.8
2017-Sep-21 09:54N 32°08' W 081°09'0 0.0
2017-Sep-21 09:27N 32°08' W 081°09'0 0.0
2017-Sep-21 08:57N 32°08' W 081°09'0 0.0
2017-Sep-21 08:21N 32°08' W 081°09'0 0.0
2017-Sep-21 07:57N 32°08' W 081°09'0 0.0
2017-Sep-21 07:27N 32°08' W 081°09'0 0.0
2017-Sep-21 06:39N 32°08' W 081°09'0 0.0
2017-Sep-21 06:27N 32°08' W 081°09'0 0.0
2017-Sep-21 05:51N 32°08' W 081°09'0 0.0
2017-Sep-21 05:21N 32°08' W 081°09'0 0.0
2017-Sep-21 04:57N 32°08' W 081°09'0 0.0
2017-Sep-21 04:27N 32°08' W 081°09'0 0.0
2017-Sep-21 03:57N 32°08' W 081°09'0 0.0
2017-Sep-21 03:27N 32°08' W 081°09'0 0.0
2017-Sep-21 02:57N 32°08' W 081°09'0 0.0
2017-Sep-21 02:27N 32°08' W 081°09'0 0.0
2017-Sep-21 01:51N 32°08' W 081°09'0 0.0
2017-Sep-21 01:27N 32°08' W 081°09'0 0.0
2017-Sep-21 00:51N 32°08' W 081°09'0 0.0
2017-Sep-21 00:27N 32°08' W 081°09'0 0.0
2017-Sep-20 23:51N 32°08' W 081°09'0 0.0
2017-Sep-20 23:09N 32°08' W 081°09'0 0.0
2017-Sep-20 22:57N 32°08' W 081°09'0 0.0
2017-Sep-20 22:27N 32°08' W 081°09'0 0.0
2017-Sep-20 21:57N 32°08' W 081°09'0 0.0
2017-Sep-20 21:27N 32°08' W 081°09'0 0.0
2017-Sep-20 20:51N 32°08' W 081°09'0 0.0
2017-Sep-20 20:03N 32°08' W 081°09'0 0.0
2017-Sep-20 19:57N 32°08' W 081°09'0 0.0
2017-Sep-20 19:27N 32°08' W 081°09'0 0.0
2017-Sep-20 18:57N 32°08' W 081°09'0 0.0
2017-Sep-20 18:09N 32°08' W 081°09'0 0.0
2017-Sep-20 17:57N 32°08' W 081°09'0 0.0
2017-Sep-20 17:27N 32°08' W 081°09'0 0.0
2017-Sep-20 16:57N 32°08' W 081°09'0 0.0
2017-Sep-20 16:27N 32°08' W 081°09'0 0.0
2017-Sep-20 15:57N 32°08' W 081°09'0 0.0
2017-Sep-20 15:27N 32°08' W 081°09'1 1.2
2017-Sep-20 15:00N 32°08' W 081°08'4 3.8
2017-Sep-20 14:00N 32°05' W 081°05'3 6.3
2017-Sep-20 13:28N 32°05' W 081°01'5 9.7
2017-Sep-20 13:00N 32°03' W 080°57'510.7
2017-Sep-20 12:30N 32°02' W 080°51'713.5
2017-Sep-20 12:00N 31°58' W 080°44'510.1
2017-Sep-20 11:29N 31°56' W 080°38'5 9.7
2017-Sep-20 11:00N 31°56' W 080°33'611.0
2017-Sep-20 10:30N 31°56' W 080°26'511.0
2017-Sep-20 10:00N 31°56' W 080°20'611.2
2017-Sep-20 09:29N 31°55' W 080°13'510.7
2017-Sep-20 09:00N 31°54' W 080°07'3 3.5
2017-Sep-20 08:14N 31°54' W 080°04'0 0.8
2017-Sep-20 07:59N 31°54' W 080°04'0 0.6
2017-Sep-20 07:16N 31°54' W 080°04'0 0.3
2017-Sep-20 07:00N 31°53' W 080°04'0 0.8
2017-Sep-20 06:30N 31°53' W 080°04'0 1.0
2017-Sep-20 06:00N 31°53' W 080°03'0 0.8
2017-Sep-20 05:30N 31°53' W 080°03'0 0.9
2017-Sep-20 05:00N 31°53' W 080°02'0 0.6
2017-Sep-20 04:30N 31°53' W 080°02'0 0.9
2017-Sep-20 04:00N 31°53' W 080°01'0 0.7
2017-Sep-20 03:30N 31°53' W 080°02'1 1.1
2017-Sep-20 02:58N 31°53' W 080°02'0 0.5
2017-Sep-20 02:04N 31°54' W 080°03'0 1.0
2017-Sep-20 02:00N 31°54' W 080°03'0 0.4
2017-Sep-20 00:59N 31°54' W 080°03'1 1.3
2017-Sep-20 00:30N 31°54' W 080°04'0 0.7
2017-Sep-20 00:00N 31°54' W 080°04'0 0.9
2017-Sep-19 23:28N 31°54' W 080°05'0 0.8
2017-Sep-19 22:55N 31°53' W 080°04'0 0.4
2017-Sep-19 22:30N 31°53' W 080°04'0 0.3
2017-Sep-19 21:57N 31°53' W 080°04'1 2.2
2017-Sep-19 21:24N 31°54' W 080°05'1 3.0
2017-Sep-19 21:00N 31°55' W 080°06'1 1.8
2017-Sep-19 20:30N 31°55' W 080°07'0 0.8
2017-Sep-19 19:59N 31°55' W 080°07'0 0.3
2017-Sep-19 19:14N 31°55' W 080°07'3 6.3
2017-Sep-19 18:49N 31°54' W 080°04'10 4.4
2017-Sep-19 16:35N 31°51' W 079°53'0 1.0
2017-Sep-19 16:22N 31°52' W 079°53'0 1.2
2017-Sep-19 15:58N 31°52' W 079°53'1 1.3
2017-Sep-19 15:30N 31°52' W 079°54'1 1.1
2017-Sep-19 15:00N 31°52' W 079°55'1 1.4
2017-Sep-19 14:29N 31°52' W 079°56'2 1.9
2017-Sep-19 13:39N 31°53' W 079°57'1 1.8
2017-Sep-19 13:13N 31°53' W 079°58'1 1.6
2017-Sep-19 12:47N 31°52' W 079°59'0 1.2
2017-Sep-19 12:27N 31°52' W 079°59'1 1.6
2017-Sep-19 12:00N 31°52' W 080°00'1 1.3
2017-Sep-19 11:25N 31°52' W 080°01'0 0.9
2017-Sep-19 10:59N 31°53' W 080°01'0 0.9
2017-Sep-19 10:26N 31°53' W 080°02'1 1.3
2017-Sep-19 09:59N 31°52' W 080°02'0 0.6
2017-Sep-19 09:12N 31°52' W 080°02'0 1.2
2017-Sep-19 08:55N 31°52' W 080°02'0 0.5
2017-Sep-19 08:14N 31°52' W 080°02'0 0.5
2017-Sep-19 08:00N 31°52' W 080°02'0 0.7
2017-Sep-19 07:29N 31°52' W 080°02'0 0.6
2017-Sep-19 07:00N 31°52' W 080°02'0 0.6
2017-Sep-19 06:29N 31°52' W 080°02'0 0.3
2017-Sep-19 05:57N 31°51' W 080°02'0 0.2
2017-Sep-19 05:30N 31°51' W 080°02'0 0.3
2017-Sep-19 05:00N 31°51' W 080°02'1 1.1
2017-Sep-19 04:30N 31°52' W 080°03'1 1.4
2017-Sep-19 04:00N 31°52' W 080°03'1 1.1
2017-Sep-19 03:30N 31°52' W 080°04'1 1.1
2017-Sep-19 03:00N 31°53' W 080°04'1 1.1
2017-Sep-19 02:30N 31°53' W 080°05'0 0.3
2017-Sep-19 02:00N 31°53' W 080°05'0 0.8
2017-Sep-19 01:27N 31°53' W 080°06'1 0.6
2017-Sep-18 23:29N 31°54' W 080°07'0 0.2
2017-Sep-18 21:50N 31°54' W 080°06'0 1.2
2017-Sep-18 21:30N 31°54' W 080°06'0 0.6
2017-Sep-18 20:59N 31°54' W 080°06'0 0.8
2017-Sep-18 20:29N 31°53' W 080°05'1 1.1
2017-Sep-18 19:57N 31°53' W 080°06'3810.5
2017-Sep-18 16:19N 32°03' W 079°22'1 2.6
2017-Sep-18 15:50N 32°03' W 079°21'286 8.1
2017-Sep-17 04:16N 35°12' W 075°03'2 7.4
2017-Sep-17 04:00N 35°14' W 075°03'8 8.5
2017-Sep-17 03:04N 35°22' W 075°02'210.1
2017-Sep-17 02:50N 35°24' W 075°03'410.0
2017-Sep-17 02:25N 35°28' W 075°04'410.1
2017-Sep-17 02:00N 35°32' W 075°05'610.4
2017-Sep-17 01:28N 35°38' W 075°07'510.5
2017-Sep-17 01:00N 35°42' W 075°08'710.4
2017-Sep-17 00:22N 35°49' W 075°09'410.6
2017-Sep-17 00:00N 35°52' W 075°11'510.6
2017-Sep-16 23:30N 35°58' W 075°13'5810.2
2017-Sep-16 17:47N 36°49' W 075°47'510.7
2017-Sep-16 17:22N 36°51' W 075°51'411.3
2017-Sep-16 17:00N 36°54' W 075°55'611.8
2017-Sep-16 16:30N 36°57' W 076°02'916.8
2017-Sep-16 15:58N 36°60' W 076°12'612.1
2017-Sep-16 15:26N 36°58' W 076°20'3 7.2
2017-Sep-16 15:00N 36°55' W 076°20'1 1.3
2017-Sep-16 14:28N 36°55' W 076°20'0 0.0
2017-Sep-16 13:58N 36°55' W 076°20'0 0.0
2017-Sep-16 13:28N 36°55' W 076°20'0 0.0
2017-Sep-16 12:58N 36°55' W 076°20'0 0.0
2017-Sep-16 12:28N 36°55' W 076°20'0 0.0
2017-Sep-16 11:58N 36°55' W 076°20'0 0.0
2017-Sep-16 11:28N 36°55' W 076°20'0 0.0
2017-Sep-16 10:58N 36°55' W 076°20'0 0.0
2017-Sep-16 10:28N 36°55' W 076°20'0 0.0
2017-Sep-16 09:58N 36°55' W 076°20'0 0.0
2017-Sep-16 09:28N 36°55' W 076°20'0 0.0
2017-Sep-16 08:58N 36°55' W 076°20'0 0.0
2017-Sep-16 08:28N 36°55' W 076°20'0 0.0
2017-Sep-16 07:58N 36°55' W 076°20'0 0.0
2017-Sep-16 07:28N 36°55' W 076°20'0 0.0
2017-Sep-16 06:58N 36°55' W 076°20'0 0.0
2017-Sep-16 06:28N 36°55' W 076°20'0 0.0
2017-Sep-16 05:58N 36°55' W 076°20'0 0.0
2017-Sep-16 05:25N 36°55' W 076°20'0 0.0
2017-Sep-16 04:58N 36°55' W 076°20'0 0.0
2017-Sep-16 04:28N 36°55' W 076°20'0 0.0
2017-Sep-16 03:58N 36°55' W 076°20'0 0.0
2017-Sep-16 03:28N 36°55' W 076°20'0 0.0
2017-Sep-16 02:58N 36°55' W 076°20'0 0.0
2017-Sep-16 02:28N 36°55' W 076°20'0 0.0
2017-Sep-16 01:58N 36°55' W 076°20'0 0.0
2017-Sep-16 01:28N 36°55' W 076°20'0 0.0
2017-Sep-16 00:58N 36°55' W 076°20'0 0.0
2017-Sep-16 00:28N 36°55' W 076°20'0 0.0
2017-Sep-15 23:58N 36°55' W 076°20'0 0.0
2017-Sep-15 23:28N 36°55' W 076°20'0 0.0
2017-Sep-15 22:58N 36°55' W 076°20'0 0.0
2017-Sep-15 22:28N 36°55' W 076°20'0 0.0
2017-Sep-15 21:58N 36°55' W 076°20'0 0.0
2017-Sep-15 21:29N 36°55' W 076°20'1 1.5
2017-Sep-15 21:00N 36°55' W 076°20'3 5.1
2017-Sep-15 20:30N 36°58' W 076°20'510.6
2017-Sep-15 20:00N 37°00' W 076°15'815.9
2017-Sep-15 19:30N 36°58' W 076°05'612.9
2017-Sep-15 19:00N 36°57' W 075°57'5 9.8
2017-Sep-15 18:30N 36°53' W 075°53'611.3
2017-Sep-15 18:00N 36°50' W 075°47'612.1
2017-Sep-15 17:30N 36°49' W 075°39'128 7.4
2017-Sep-15 00:17N 38°33' W 074°05'310.4
2017-Sep-15 00:00N 38°36' W 074°04'510.5
2017-Sep-14 23:30N 38°41' W 074°03'610.5
2017-Sep-14 22:56N 38°47' W 074°02'410.5
2017-Sep-14 22:30N 38°52' W 074°01'510.3
2017-Sep-14 21:58N 38°57' W 074°00'510.2
2017-Sep-14 21:29N 39°02' W 073°59'510.2
2017-Sep-14 20:59N 39°07' W 073°59'510.1
2017-Sep-14 20:30N 39°12' W 073°58'510.1
2017-Sep-14 20:00N 39°17' W 073°57'1110.0
2017-Sep-14 18:57N 39°27' W 073°55'410.0
2017-Sep-14 18:30N 39°31' W 073°54'5 9.9
2017-Sep-14 18:00N 39°36' W 073°53'5 9.8
2017-Sep-14 17:30N 39°41' W 073°52'510.0
2017-Sep-14 17:00N 39°46' W 073°51'510.0
2017-Sep-14 16:30N 39°51' W 073°51'510.1
2017-Sep-14 16:00N 39°56' W 073°51'610.2
2017-Sep-14 15:27N 40°02' W 073°50'510.1
2017-Sep-14 15:00N 40°06' W 073°50'510.1
2017-Sep-14 14:30N 40°11' W 073°50'510.1
2017-Sep-14 14:01N 40°16' W 073°49'510.0
2017-Sep-14 13:30N 40°22' W 073°49'5 9.8
2017-Sep-14 13:00N 40°26' W 073°49'713.9
2017-Sep-14 12:30N 40°30' W 073°57'815.8
2017-Sep-14 12:00N 40°37' W 074°03'4 3.8
2017-Sep-14 10:58N 40°40' W 074°05'0 0.0
2017-Sep-14 10:28N 40°40' W 074°05'0 0.0
2017-Sep-14 09:58N 40°40' W 074°05'0 0.0
2017-Sep-14 09:28N 40°40' W 074°05'0 0.0
2017-Sep-14 08:58N 40°40' W 074°05'0 0.0
2017-Sep-14 08:28N 40°40' W 074°05'0 0.0
2017-Sep-14 07:58N 40°40' W 074°05'0 0.0
2017-Sep-14 07:28N 40°40' W 074°05'0 0.0
2017-Sep-14 06:58N 40°40' W 074°05'0 0.0
2017-Sep-14 06:28N 40°40' W 074°05'0 0.0
2017-Sep-14 05:58N 40°40' W 074°05'0 0.0
2017-Sep-14 05:28N 40°40' W 074°05'0 0.0
2017-Sep-14 04:58N 40°40' W 074°05'0 0.0
2017-Sep-14 04:28N 40°40' W 074°05'0 0.0
2017-Sep-14 03:58N 40°40' W 074°05'0 0.0
2017-Sep-14 03:28N 40°40' W 074°05'0 0.0
2017-Sep-14 02:58N 40°40' W 074°05'0 0.0
2017-Sep-14 02:28N 40°40' W 074°05'0 0.0
2017-Sep-14 01:58N 40°40' W 074°05'0 0.0
2017-Sep-14 01:28N 40°40' W 074°05'0 0.0
2017-Sep-14 00:58N 40°40' W 074°05'0 0.0
2017-Sep-14 00:28N 40°40' W 074°05'0 0.0
2017-Sep-13 23:58N 40°40' W 074°05'0 0.0
2017-Sep-13 23:28N 40°40' W 074°05'0 0.0
2017-Sep-13 22:58N 40°40' W 074°05'0 0.0
2017-Sep-13 22:28N 40°40' W 074°05'0 0.0
2017-Sep-13 21:58N 40°40' W 074°05'0 0.0
2017-Sep-13 21:28N 40°40' W 074°05'0 0.0
2017-Sep-13 20:58N 40°40' W 074°05'0 0.0
2017-Sep-13 20:28N 40°40' W 074°05'0 0.0
2017-Sep-13 19:58N 40°40' W 074°05'0 0.0
2017-Sep-13 19:28N 40°40' W 074°05'0 0.0
2017-Sep-13 18:58N 40°40' W 074°05'0 0.0
2017-Sep-13 18:28N 40°40' W 074°05'0 0.0
2017-Sep-13 17:58N 40°40' W 074°05'0 0.0
2017-Sep-13 17:28N 40°40' W 074°05'0 0.0
2017-Sep-13 16:58N 40°40' W 074°05'0 0.0
2017-Sep-13 16:28N 40°40' W 074°05'0 0.0
2017-Sep-13 15:58N 40°40' W 074°05'0 0.0
2017-Sep-13 15:28N 40°40' W 074°05'0 0.0
2017-Sep-13 14:58N 40°40' W 074°05'0 0.0
2017-Sep-13 14:28N 40°40' W 074°05'0 0.0
2017-Sep-13 13:58N 40°40' W 074°05'0 0.0
2017-Sep-13 13:28N 40°40' W 074°05'0 0.0
2017-Sep-13 12:58N 40°40' W 074°05'0 0.0
2017-Sep-13 12:28N 40°40' W 074°05'0 0.0
2017-Sep-13 11:58N 40°40' W 074°05'0 0.0
2017-Sep-13 11:28N 40°40' W 074°05'0 0.0
2017-Sep-13 10:58N 40°40' W 074°05'0 0.0
2017-Sep-13 10:28N 40°40' W 074°05'0 0.0
2017-Sep-13 09:58N 40°40' W 074°05'0 0.0
2017-Sep-13 09:28N 40°40' W 074°05'0 0.0
2017-Sep-13 08:58N 40°40' W 074°05'0 0.0
2017-Sep-13 08:28N 40°40' W 074°05'0 0.0
2017-Sep-13 07:58N 40°40' W 074°05'0 0.0
2017-Sep-13 07:28N 40°40' W 074°05'0 0.0
2017-Sep-13 06:58N 40°40' W 074°05'0 0.0
2017-Sep-13 06:28N 40°40' W 074°05'0 0.0
2017-Sep-13 05:58N 40°40' W 074°05'0 0.0
2017-Sep-13 05:28N 40°40' W 074°05'0 0.0
2017-Sep-13 04:58N 40°40' W 074°05'0 0.0
2017-Sep-13 04:28N 40°40' W 074°05'0 0.0
2017-Sep-13 03:58N 40°40' W 074°05'0 0.0
2017-Sep-13 03:28N 40°40' W 074°05'0 0.0
2017-Sep-13 02:58N 40°40' W 074°05'0 0.0
2017-Sep-13 02:28N 40°40' W 074°05'0 0.0
2017-Sep-13 01:58N 40°40' W 074°05'0 0.0
2017-Sep-13 01:28N 40°40' W 074°05'0 0.0
2017-Sep-13 00:58N 40°40' W 074°05'0 0.0
2017-Sep-13 00:28N 40°40' W 074°05'0 0.0
2017-Sep-12 23:58N 40°40' W 074°05'0 0.0
2017-Sep-12 23:28N 40°40' W 074°05'0 0.0
2017-Sep-12 22:58N 40°40' W 074°05'0 0.0
2017-Sep-12 22:28N 40°40' W 074°05'0 0.0
2017-Sep-12 21:58N 40°40' W 074°05'0 0.0
2017-Sep-12 21:28N 40°40' W 074°05'0 0.0
2017-Sep-12 20:58N 40°40' W 074°05'0 0.0
2017-Sep-12 20:28N 40°40' W 074°05'0 0.9
2017-Sep-12 20:00N 40°40' W 074°04'4 7.4
2017-Sep-12 19:30N 40°36' W 074°03'510.3
2017-Sep-12 19:00N 40°32' W 074°01'611.1
2017-Sep-12 18:30N 40°29' W 073°54'5 9.6
2017-Sep-12 18:00N 40°27' W 073°48'3 6.3
2017-Sep-12 17:29N 40°28' W 073°44'0 0.4
2017-Sep-12 17:00N 40°27' W 073°44'3 6.1
2017-Sep-12 16:30N 40°28' W 073°40'1015.1
2017-Sep-12 15:52N 40°28' W 073°27'616.0
2017-Sep-12 15:30N 40°29' W 073°20'815.8
2017-Sep-12 14:59N 40°29' W 073°09'815.8
2017-Sep-12 14:31N 40°30' W 072°59'816.1
2017-Sep-12 14:01N 40°30' W 072°48'713.8
2017-Sep-12 13:30N 40°30' W 072°39'1 1.0
2017-Sep-12 13:00N 40°30' W 072°39'3 5.9
2017-Sep-12 12:31N 40°30' W 072°35'2517.8
2017-Sep-12 11:06N 40°31' W 072°02'218.3
2017-Sep-12 11:01N 40°31' W 071°60'918.3
2017-Sep-12 10:31N 40°32' W 071°48'  

Dump ship's entire track history